Time,TemperatureF,DewpointF,PressureIn,WindDirection,WindDirectionDegrees,WindSpeedMPH,WindSpeedGustMPH,Humidity,HourlyPrecipIn,Conditions,Clouds,dailyrainin,SolarRadiationWatts/m^2,SoftwareType,DateUTC
2013-09-23 00:22:00,47.0,41.0,-100.00,East,97,0.0,7.0,78,0.00,,,0.00,0.000000,,2013-09-23 07:22:00,
2013-09-23 00:32:00,47.0,41.0,-100.00,East,97,0.0,7.0,78,0.00,,,0.00,0.000000,,2013-09-23 07:32:00,
2013-09-23 00:42:00,47.0,41.0,-100.00,East,97,0.0,7.0,78,0.00,,,0.00,0.000000,,2013-09-23 07:42:00,
2013-09-23 00:52:00,47.0,41.0,-100.00,East,97,0.0,7.0,78,0.00,,,0.00,0.000000,,2013-09-23 07:52:00,
2013-09-23 01:22:00,44.0,39.0,-100.00,East,99,0.0,5.0,82,0.00,,,0.00,0.000000,,2013-09-23 08:22:00,
2013-09-23 01:32:00,44.0,39.0,-100.00,East,99,0.0,5.0,82,0.00,,,0.00,0.000000,,2013-09-23 08:32:00,
2013-09-23 01:42:00,44.0,39.0,-100.00,East,99,0.0,5.0,82,0.00,,,0.00,0.000000,,2013-09-23 08:42:00,
2013-09-23 01:52:00,44.0,39.0,-100.00,East,99,0.0,5.0,82,0.00,,,0.00,0.000000,,2013-09-23 08:52:00,
2013-09-23 02:21:00,44.0,39.0,-100.00,East,96,0.0,4.0,83,0.00,,,0.00,0.000000,,2013-09-23 09:21:00,
2013-09-23 02:33:00,44.0,39.0,-100.00,East,96,0.0,4.0,83,0.00,,,0.00,0.000000,,2013-09-23 09:33:00,
2013-09-23 02:42:00,44.0,39.0,-100.00,East,96,0.0,4.0,83,0.00,,,0.00,0.000000,,2013-09-23 09:42:00,
2013-09-23 02:53:00,44.0,39.0,-100.00,East,96,0.0,4.0,83,0.00,,,0.00,0.000000,,2013-09-23 09:53:00,
2013-09-23 03:23:00,45.0,40.0,-100.00,East,97,0.0,5.0,83,0.00,,,0.00,0.000000,,2013-09-23 10:23:00,
2013-09-23 03:33:00,45.0,40.0,-100.00,East,97,0.0,5.0,83,0.00,,,0.00,0.000000,,2013-09-23 10:33:00,
2013-09-23 03:42:00,45.0,40.0,-100.00,East,97,0.0,5.0,83,0.00,,,0.00,0.000000,,2013-09-23 10:42:00,
2013-09-23 03:52:00,45.0,40.0,-100.00,East,97,0.0,5.0,83,0.00,,,0.00,0.000000,,2013-09-23 10:52:00,
2013-09-23 04:21:00,45.0,40.0,-100.00,ESE,102,0.0,5.0,83,0.00,,,0.00,0.000000,,2013-09-23 11:21:00,
2013-09-23 04:33:00,45.0,40.0,-100.00,ESE,102,0.0,5.0,83,0.00,,,0.00,0.000000,,2013-09-23 11:33:00,
2013-09-23 04:42:00,45.0,40.0,-100.00,ESE,102,0.0,5.0,83,0.00,,,0.00,0.000000,,2013-09-23 11:42:00,
2013-09-23 04:52:00,45.0,40.0,-100.00,ESE,102,0.0,5.0,83,0.00,,,0.00,0.000000,,2013-09-23 11:52:00,
2013-09-23 05:22:00,43.0,38.0,-100.00,East,93,0.0,5.0,84,0.00,,,0.00,0.000000,,2013-09-23 12:22:00,
2013-09-23 05:32:00,43.0,38.0,-100.00,East,93,0.0,5.0,84,0.00,,,0.00,0.000000,,2013-09-23 12:32:00,
2013-09-23 05:42:00,43.0,38.0,-100.00,East,93,0.0,5.0,84,0.00,,,0.00,0.000000,,2013-09-23 12:42:00,
2013-09-23 05:52:00,43.0,38.0,-100.00,East,93,0.0,5.0,84,0.00,,,0.00,0.000000,,2013-09-23 12:52:00,
2013-09-23 06:21:00,44.0,41.0,-100.00,East,91,0.0,4.0,88,0.00,,,0.00,0.000000,,2013-09-23 13:21:00,
2013-09-23 06:32:00,44.0,41.0,-100.00,East,91,0.0,4.0,88,0.00,,,0.00,0.000000,,2013-09-23 13:32:00,
2013-09-23 06:42:00,44.0,41.0,-100.00,East,91,0.0,4.0,88,0.00,,,0.00,0.000000,,2013-09-23 13:42:00,
2013-09-23 06:52:00,44.0,41.0,-100.00,East,91,0.0,4.0,88,0.00,,,0.00,0.000000,,2013-09-23 13:52:00,
2013-09-23 07:22:00,43.0,38.0,-100.00,East,96,2.0,6.0,81,0.00,,,0.00,1.000000,,2013-09-23 14:22:00,
2013-09-23 07:32:00,43.0,38.0,-100.00,East,96,2.0,6.0,81,0.00,,,0.00,1.000000,,2013-09-23 14:32:00,
2013-09-23 07:42:00,43.0,38.0,-100.00,East,96,2.0,6.0,81,0.00,,,0.00,1.000000,,2013-09-23 14:42:00,
2013-09-23 07:52:00,43.0,38.0,-100.00,East,96,2.0,6.0,81,0.00,,,0.00,1.000000,,2013-09-23 14:52:00,
2013-09-23 08:21:00,47.0,42.0,-100.00,ESE,108,0.0,5.0,82,0.00,,,0.00,17.000000,,2013-09-23 15:21:00,
2013-09-23 08:33:00,47.0,42.0,-100.00,ESE,108,0.0,5.0,82,0.00,,,0.00,17.000000,,2013-09-23 15:33:00,
2013-09-23 08:43:00,47.0,42.0,-100.00,ESE,108,0.0,5.0,82,0.00,,,0.00,17.000000,,2013-09-23 15:43:00,
2013-09-23 08:54:00,47.0,42.0,-100.00,ESE,108,0.0,5.0,82,0.00,,,0.00,17.000000,,2013-09-23 15:54:00,
2013-09-23 11:21:00,70.0,43.0,-100.00,WNW,284,2.0,8.0,38,-99.99,,,0.00,771.000000,,2013-09-23 18:21:00,
2013-09-23 11:33:00,70.0,43.0,-100.00,WNW,284,2.0,8.0,38,-99.99,,,0.00,771.000000,,2013-09-23 18:33:00,
2013-09-23 11:42:00,70.0,43.0,-100.00,WNW,284,2.0,8.0,38,-99.99,,,0.00,771.000000,,2013-09-23 18:42:00,
2013-09-23 11:52:00,70.0,43.0,-100.00,WNW,284,2.0,8.0,38,-99.99,,,0.00,771.000000,,2013-09-23 18:52:00,
2013-09-23 12:22:00,73.0,44.0,-100.00,West,265,3.0,10.0,35,0.00,,,0.00,933.000000,,2013-09-23 19:22:00,
2013-09-23 12:32:00,73.0,44.0,-100.00,West,265,3.0,10.0,35,0.00,,,0.00,933.000000,,2013-09-23 19:32:00,
2013-09-23 12:42:00,73.0,44.0,-100.00,West,265,3.0,10.0,35,0.00,,,0.00,933.000000,,2013-09-23 19:42:00,
2013-09-23 12:53:00,73.0,44.0,-100.00,West,265,3.0,10.0,35,0.00,,,0.00,933.000000,,2013-09-23 19:53:00,
2013-09-23 13:21:00,75.0,43.0,-100.00,West,265,4.0,9.0,32,0.00,,,0.00,1018.000000,,2013-09-23 20:21:00,
2013-09-23 13:32:00,75.0,43.0,-100.00,West,265,4.0,9.0,32,0.00,,,0.00,1018.000000,,2013-09-23 20:32:00,
2013-09-23 13:42:00,75.0,43.0,-100.00,West,265,4.0,9.0,32,0.00,,,0.00,1018.000000,,2013-09-23 20:42:00,
2013-09-23 13:52:00,75.0,43.0,-100.00,West,265,4.0,9.0,32,0.00,,,0.00,1018.000000,,2013-09-23 20:52:00,
2013-09-23 14:23:00,80.0,44.0,-100.00,WNW,295,4.0,10.0,28,0.00,,,0.00,1007.000000,,2013-09-23 21:23:00,
2013-09-23 14:34:00,80.0,44.0,-100.00,WNW,295,4.0,10.0,28,0.00,,,0.00,1007.000000,,2013-09-23 21:34:00,
2013-09-23 14:44:00,80.0,44.0,-100.00,WNW,295,4.0,10.0,28,0.00,,,0.00,1007.000000,,2013-09-23 21:44:00,
2013-09-23 14:54:00,80.0,44.0,-100.00,WNW,295,4.0,10.0,28,0.00,,,0.00,1007.000000,,2013-09-23 21:54:00,
2013-09-23 15:23:00,80.0,44.0,-100.00,WSW,257,5.0,9.0,28,0.00,,,0.00,923.000000,,2013-09-23 22:23:00,
2013-09-23 15:33:00,80.0,44.0,-100.00,WSW,257,5.0,9.0,28,0.00,,,0.00,923.000000,,2013-09-23 22:33:00,
2013-09-23 15:43:00,80.0,44.0,-100.00,WSW,257,5.0,9.0,28,0.00,,,0.00,923.000000,,2013-09-23 22:43:00,
2013-09-23 15:54:00,80.0,44.0,-100.00,WSW,257,5.0,9.0,28,0.00,,,0.00,923.000000,,2013-09-23 22:54:00,
2013-09-23 16:22:00,81.0,44.0,-100.00,WSW,238,4.0,11.0,27,0.00,,,0.00,768.000000,,2013-09-23 23:22:00,
2013-09-23 16:34:00,81.0,44.0,-100.00,WSW,238,4.0,11.0,27,0.00,,,0.00,768.000000,,2013-09-23 23:34:00,
2013-09-23 16:42:00,81.0,44.0,-100.00,WSW,238,4.0,11.0,27,0.00,,,0.00,768.000000,,2013-09-23 23:42:00,
2013-09-23 16:53:00,81.0,44.0,-100.00,WSW,238,4.0,11.0,27,0.00,,,0.00,768.000000,,2013-09-23 23:53:00,
2013-09-23 17:22:00,79.0,44.0,-100.00,WSW,242,4.0,8.0,29,0.00,,,0.00,561.000000,,2013-09-24 00:22:00,
2013-09-23 17:32:00,79.0,44.0,-100.00,WSW,242,4.0,8.0,29,0.00,,,0.00,561.000000,,2013-09-24 00:32:00,
2013-09-23 17:42:00,79.0,44.0,-100.00,WSW,242,4.0,8.0,29,0.00,,,0.00,561.000000,,2013-09-24 00:42:00,
2013-09-23 17:52:00,79.0,44.0,-100.00,WSW,242,4.0,8.0,29,0.00,,,0.00,561.000000,,2013-09-24 00:52:00,
2013-09-23 18:21:00,75.0,43.0,-100.00,WSW,249,2.0,9.0,32,0.00,,,0.00,325.000000,,2013-09-24 01:21:00,
2013-09-23 18:32:00,75.0,43.0,-100.00,WSW,249,2.0,9.0,32,0.00,,,0.00,325.000000,,2013-09-24 01:32:00,
2013-09-23 18:43:00,75.0,43.0,-100.00,WSW,249,2.0,9.0,32,0.00,,,0.00,325.000000,,2013-09-24 01:43:00,
2013-09-23 18:52:00,75.0,43.0,-100.00,WSW,249,2.0,9.0,32,0.00,,,0.00,325.000000,,2013-09-24 01:52:00,
2013-09-23 19:22:00,67.0,45.0,-100.00,WNW,294,0.0,7.0,45,0.00,,,0.00,49.000000,,2013-09-24 02:22:00,
2013-09-23 19:32:00,67.0,45.0,-100.00,WNW,294,0.0,7.0,45,0.00,,,0.00,49.000000,,2013-09-24 02:32:00,
2013-09-23 19:42:00,67.0,45.0,-100.00,WNW,294,0.0,7.0,45,0.00,,,0.00,49.000000,,2013-09-24 02:42:00,
2013-09-23 19:52:00,67.0,45.0,-100.00,WNW,294,0.0,7.0,45,0.00,,,0.00,49.000000,,2013-09-24 02:52:00,
2013-09-23 20:54:00,57.0,41.0,-100.00,East,90,0.0,4.0,56,0.00,,,-99.99,0.000000,,2013-09-24 03:54:00,
2013-09-23 21:24:00,56.0,41.0,-100.00,ENE,57,0.0,2.0,57,0.00,,,0.00,0.000000,,2013-09-24 04:24:00,
2013-09-23 21:33:00,56.0,41.0,-100.00,ENE,57,0.0,2.0,57,0.00,,,0.00,0.000000,,2013-09-24 04:33:00,
2013-09-23 21:44:00,56.0,41.0,-100.00,ENE,57,0.0,2.0,57,0.00,,,0.00,0.000000,,2013-09-24 04:44:00,
2013-09-23 21:54:00,56.0,41.0,-100.00,ENE,57,0.0,2.0,57,0.00,,,0.00,0.000000,,2013-09-24 04:54:00,
2013-09-23 22:22:00,53.0,39.0,-100.00,East,81,0.0,0.0,59,0.00,,,0.00,0.000000,,2013-09-24 05:22:00,
2013-09-23 22:34:00,53.0,39.0,-100.00,East,81,0.0,0.0,59,0.00,,,0.00,0.000000,,2013-09-24 05:34:00,
2013-09-23 22:43:00,53.0,39.0,-100.00,East,81,0.0,0.0,59,0.00,,,0.00,0.000000,,2013-09-24 05:43:00,
2013-09-23 22:53:00,53.0,39.0,-100.00,East,81,0.0,0.0,59,0.00,,,0.00,0.000000,,2013-09-24 05:53:00,
2013-09-23 23:22:00,50.0,37.0,-100.00,ENE,77,0.0,0.0,60,0.00,,,0.00,0.000000,,2013-09-24 06:22:00,
2013-09-23 23:32:00,50.0,37.0,-100.00,ENE,77,0.0,0.0,60,0.00,,,0.00,0.000000,,2013-09-24 06:32:00,
2013-09-23 23:42:00,50.0,37.0,-100.00,ENE,77,0.0,0.0,60,0.00,,,0.00,0.000000,,2013-09-24 06:42:00,
2013-09-23 23:52:00,50.0,37.0,-100.00,ENE,77,0.0,0.0,60,0.00,,,0.00,0.000000,,2013-09-24 06:52:00,